Time;durP1;ratioP1;P1;durP2;ratioP2;P2;SDS_P1;SDS_P2;PMS_P1;PMS_P2;Temp;Humidity;BMP_temperature;BMP_pressure;BME280_temperature;BME280_humidity;BME280_pressure;Samples;Min_cycle;Max_cycle;Signal;HPM_P1;HPM_P2
2022/10/11 00:00:27;;;;;;;;;;;21.90;89.50;;;;;;5137895;27;19907;-49
2022/10/11 00:02:52;;;;;;;;;;;21.90;89.50;;;;;;5127217;27;19908;-48
2022/10/11 00:05:18;;;;;;;;;;;22.00;89.50;;;;;;5117610;28;19908;-46
2022/10/11 00:07:43;;;;;;;;;;;21.90;89.50;;;;;;5117276;28;19908;-46
2022/10/11 00:10:09;;;;;;;;;;;22.00;89.50;;;;;;5117416;28;20376;-48
2022/10/11 00:12:35;;;;;;;;;;;22.00;89.50;;;;;;5117424;28;19912;-48
2022/10/11 00:15:01;;;;;;;;;;;21.90;89.50;;;;;;5117715;28;20002;-46
2022/10/11 00:17:26;;;;;;;;;;;21.90;89.60;;;;;;5117313;28;19912;-45
2022/10/11 00:19:52;;;;;;;;;;;21.90;89.50;;;;;;5116899;28;19915;-45
2022/10/11 00:22:17;;;;;;;;;;;21.90;89.60;;;;;;5116973;28;20452;-47
2022/10/11 00:24:43;;;;;;;;;;;21.90;89.70;;;;;;5116854;28;19909;-44
2022/10/11 00:27:08;;;;;;;;;;;21.90;89.70;;;;;;5117124;28;19915;-46
2022/10/11 00:29:34;;;;;;;;;;;21.90;89.70;;;;;;5116947;28;19911;-47
2022/10/11 00:31:59;;;;;;;;;;;21.90;89.70;;;;;;5116990;28;20014;-48
2022/10/11 00:34:25;;;;;;;;;;;21.90;89.60;;;;;;5116720;28;19914;-45
2022/10/11 00:36:50;;;;;;;;;;;21.90;89.60;;;;;;5116990;28;19965;-45
2022/10/11 00:39:16;;;;;;;;;;;21.90;89.70;;;;;;5116593;28;19912;-45
2022/10/11 00:41:41;;;;;;;;;;;21.90;89.70;;;;;;5116636;28;19908;-45
2022/10/11 00:44:21;;;;;;;;;;;21.90;89.70;;;;;;5116778;28;20247;-45
2022/10/11 00:46:58;;;;;;;;;;;21.80;89.60;;;;;;5098232;28;19912;-45
2022/10/11 00:49:32;;;;;;;;;;;21.90;89.70;;;;;;5116585;28;20362;-48
2022/10/11 00:52:00;;;;;;;;;;;21.90;89.60;;;;;;5116475;28;20331;-45
2022/10/11 00:54:27;;;;;;;;;;;21.90;89.60;;;;;;5116547;28;19915;-45
2022/10/11 00:56:55;;;;;;;;;;;21.90;89.60;;;;;;5116480;28;19914;-46
2022/10/11 00:59:23;;;;;;;;;;;21.90;89.60;;;;;;5116177;28;20406;-48
2022/10/11 01:01:49;;;;;;;;;;;22.00;89.60;;;;;;5117690;28;19908;-46
2022/10/11 01:04:14;;;;;;;;;;;22.00;89.60;;;;;;5136416;27;19908;-47
2022/10/11 01:06:40;;;;;;;;;;;22.00;89.50;;;;;;5136812;27;19927;-46
2022/10/11 01:09:06;;;;;;;;;;;21.90;89.40;;;;;;5137002;27;19969;-48
2022/10/11 01:11:34;;;;;;;;;;;21.90;89.40;;;;;;5136387;27;19922;-45
2022/10/11 01:14:05;;;;;;;;;;;21.90;89.50;;;;;;5136676;27;19915;-45
2022/10/11 01:16:31;;;;;;;;;;;21.90;89.50;;;;;;5136689;27;19912;-45
2022/10/11 01:19:15;;;;;;;;;;;21.90;89.50;;;;;;5136340;27;19930;-49
2022/10/11 01:21:44;;;;;;;;;;;21.90;89.50;;;;;;5136540;27;20007;-46
2022/10/11 01:24:25;;;;;;;;;;;21.90;89.60;;;;;;5136250;27;20048;-46
2022/10/11 01:27:00;;;;;;;;;;;21.90;89.50;;;;;;5136479;27;19915;-46
2022/10/11 01:29:34;;;;;;;;;;;21.90;89.60;;;;;;5136152;27;19911;-46
2022/10/11 01:32:00;;;;;;;;;;;21.90;89.60;;;;;;5136428;27;19963;-46
2022/10/11 01:34:30;;;;;;;;;;;21.90;89.70;;;;;;5136112;27;20005;-45
2022/10/11 01:36:55;;;;;;;;;;;21.90;89.70;;;;;;5136296;27;20072;-46
2022/10/11 01:39:26;;;;;;;;;;;21.90;89.70;;;;;;5135999;27;19943;-46
2022/10/11 01:41:54;;;;;;;;;;;21.90;89.70;;;;;;5135964;27;19943;-48
2022/10/11 01:44:22;;;;;;;;;;;21.90;89.70;;;;;;5136218;27;20265;-47
2022/10/11 01:46:49;;;;;;;;;;;21.90;89.80;;;;;;5135699;27;20302;-45
2022/10/11 01:49:15;;;;;;;;;;;21.90;89.70;;;;;;5135741;27;19936;-48
2022/10/11 01:51:45;;;;;;;;;;;21.90;90.10;;;;;;5135759;27;19916;-46
2022/10/11 01:54:23;;;;;;;;;;;21.90;89.60;;;;;;5136027;27;20400;-45
2022/10/11 01:56:58;;;;;;;;;;;22.00;89.70;;;;;;5136248;27;20360;-46
2022/10/11 01:59:30;;;;;;;;;;;22.00;89.60;;;;;;5135920;27;20350;-48
2022/10/11 02:01:56;;;;;;;;;;;22.00;89.60;;;;;;5132947;27;20495;-46
2022/10/11 02:04:32;;;;;;;;;;;22.00;89.50;;;;;;5114832;28;19915;-49
2022/10/11 02:07:03;;;;;;;;;;;22.00;89.50;;;;;;5115449;28;19920;-45
2022/10/11 02:09:29;;;;;;;;;;;22.00;89.50;;;;;;5114828;28;20377;-46
2022/10/11 02:11:57;;;;;;;;;;;22.00;89.50;;;;;;5114670;28;19912;-45
2022/10/11 02:14:24;;;;;;;;;;;22.00;89.50;;;;;;5114900;28;19908;-46
2022/10/11 02:17:02;;;;;;;;;;;22.00;89.60;;;;;;5114799;28;19979;-46
2022/10/11 02:19:31;;;;;;;;;;;22.00;89.60;;;;;;5114874;28;19962;-46
2022/10/11 02:22:00;;;;;;;;;;;21.90;89.60;;;;;;5114881;28;19915;-49
2022/10/11 02:24:27;;;;;;;;;;;21.90;89.70;;;;;;5114873;28;19908;-49
2022/10/11 02:26:54;;;;;;;;;;;22.00;89.70;;;;;;5114599;28;19911;-47
2022/10/11 02:29:21;;;;;;;;;;;21.90;89.60;;;;;;5096559;28;19911;-46
2022/10/11 02:31:47;;;;;;;;;;;21.90;89.60;;;;;;5114497;28;20305;-46
2022/10/11 02:34:39;;;;;;;;;;;21.90;89.70;;;;;;5114775;28;20326;-46
2022/10/11 02:37:27;;;;;;;;;;;21.90;89.70;;;;;;5111586;28;19922;-47
2022/10/11 02:39:55;;;;;;;;;;;21.90;89.70;;;;;;5105886;28;19947;-45
2022/10/11 02:42:32;;;;;;;;;;;21.90;89.70;;;;;;5114663;28;19918;-45
2022/10/11 02:45:00;;;;;;;;;;;21.90;89.60;;;;;;5114418;28;19976;-45
2022/10/11 02:47:27;;;;;;;;;;;21.90;89.60;;;;;;5114267;28;19914;-46
2022/10/11 02:49:52;;;;;;;;;;;21.90;89.40;;;;;;5117242;28;19927;-45
2022/10/11 02:52:18;;;;;;;;;;;22.00;89.50;;;;;;5114247;28;19911;-45
2022/10/11 02:54:44;;;;;;;;;;;22.00;89.40;;;;;;5114790;28;19908;-47
2022/10/11 02:57:09;;;;;;;;;;;22.00;89.50;;;;;;5114415;28;19915;-45
2022/10/11 02:59:35;;;;;;;;;;;22.00;89.40;;;;;;5122020;28;19953;-45
2022/10/11 03:02:00;;;;;;;;;;;22.00;89.30;;;;;;5117438;28;19911;-46
2022/10/11 03:04:26;;;;;;;;;;;22.00;89.40;;;;;;5129572;28;19915;-45
2022/10/11 03:06:51;;;;;;;;;;;22.00;89.40;;;;;;5122753;28;19926;-45
2022/10/11 03:09:17;;;;;;;;;;;22.00;89.40;;;;;;5125365;28;20000;-45
2022/10/11 03:11:42;;;;;;;;;;;22.00;89.30;;;;;;5114136;28;19911;-45
2022/10/11 03:14:08;;;;;;;;;;;22.00;89.30;;;;;;5114337;28;19974;-49
2022/10/11 03:16:33;;;;;;;;;;;22.00;89.40;;;;;;5114257;28;19994;-45
2022/10/11 03:18:59;;;;;;;;;;;22.00;89.50;;;;;;5114145;28;20328;-46
2022/10/11 03:21:24;;;;;;;;;;;22.00;89.50;;;;;;5115051;28;19916;-46
2022/10/11 03:23:50;;;;;;;;;;;22.00;89.60;;;;;;5113087;28;19935;-46
2022/10/11 03:26:15;;;;;;;;;;;21.90;89.50;;;;;;5097637;28;20373;-47
2022/10/11 03:28:41;;;;;;;;;;;22.00;89.60;;;;;;5118131;27;19934;-46
2022/10/11 03:31:07;;;;;;;;;;;22.00;89.90;;;;;;5122660;27;20411;-47
2022/10/11 03:33:32;;;;;;;;;;;22.00;89.90;;;;;;5117631;27;19916;-49
2022/10/11 03:35:58;;;;;;;;;;;22.00;89.90;;;;;;5117314;27;19964;-47
2022/10/11 03:38:23;;;;;;;;;;;22.00;89.90;;;;;;5117833;27;19913;-50
2022/10/11 03:40:49;;;;;;;;;;;21.90;89.80;;;;;;5117180;27;19964;-46
2022/10/11 03:43:14;;;;;;;;;;;21.90;89.90;;;;;;5117133;27;20010;-45
2022/10/11 03:45:42;;;;;;;;;;;21.90;89.80;;;;;;5117256;27;20408;-47
2022/10/11 03:48:08;;;;;;;;;;;22.00;89.80;;;;;;5118732;27;20265;-45
2022/10/11 03:50:33;;;;;;;;;;;22.00;89.90;;;;;;5117685;28;19918;-46
2022/10/11 03:52:59;;;;;;;;;;;22.00;89.70;;;;;;5116081;28;19916;-47
2022/10/11 03:55:24;;;;;;;;;;;22.00;89.70;;;;;;5116139;28;19908;-47
2022/10/11 03:57:50;;;;;;;;;;;22.00;89.80;;;;;;5115532;28;19912;-49
2022/10/11 04:00:15;;;;;;;;;;;22.00;89.70;;;;;;5119289;27;19908;-50
2022/10/11 04:02:41;;;;;;;;;;;22.00;89.60;;;;;;5126564;27;20345;-49
2022/10/11 04:05:06;;;;;;;;;;;22.00;90.00;;;;;;5116458;27;19907;-47
2022/10/11 04:07:32;;;;;;;;;;;22.00;89.70;;;;;;5117732;28;19971;-45
2022/10/11 04:09:58;;;;;;;;;;;21.90;89.60;;;;;;5117006;28;19912;-48
2022/10/11 04:12:23;;;;;;;;;;;22.00;89.50;;;;;;5116838;28;19912;-46
2022/10/11 04:14:49;;;;;;;;;;;22.00;89.50;;;;;;5116049;28;19908;-45
2022/10/11 04:17:14;;;;;;;;;;;21.90;89.40;;;;;;5116018;28;19908;-45
2022/10/11 04:19:40;;;;;;;;;;;21.90;89.40;;;;;;5115818;28;19995;-48
2022/10/11 04:22:06;;;;;;;;;;;22.00;89.50;;;;;;5115908;28;19908;-47
2022/10/11 04:24:31;;;;;;;;;;;21.90;89.60;;;;;;5116111;28;20381;-47
2022/10/11 04:26:57;;;;;;;;;;;21.90;89.60;;;;;;5115994;28;20410;-46
2022/10/11 04:29:23;;;;;;;;;;;22.00;89.70;;;;;;5114870;28;19918;-46
2022/10/11 04:31:48;;;;;;;;;;;21.90;89.90;;;;;;5096621;28;19912;-45
2022/10/11 04:34:14;;;;;;;;;;;21.90;90.00;;;;;;5114673;28;20255;-46
2022/10/11 04:36:39;;;;;;;;;;;21.90;89.90;;;;;;5114639;28;19914;-49
2022/10/11 04:39:05;;;;;;;;;;;21.90;89.90;;;;;;5114530;28;19908;-45
2022/10/11 04:41:31;;;;;;;;;;;21.90;90.00;;;;;;5115036;28;19912;-46
2022/10/11 04:43:56;;;;;;;;;;;21.90;89.90;;;;;;5116762;28;19969;-45
2022/10/11 04:46:22;;;;;;;;;;;21.90;89.90;;;;;;5116473;28;20374;-45
2022/10/11 04:48:48;;;;;;;;;;;21.90;89.80;;;;;;5116341;28;20328;-45
2022/10/11 04:51:13;;;;;;;;;;;21.90;89.70;;;;;;5116542;28;19912;-45
2022/10/11 04:53:39;;;;;;;;;;;22.00;89.70;;;;;;5116561;28;19908;-47
2022/10/11 04:56:06;;;;;;;;;;;22.00;89.60;;;;;;5116204;28;19908;-48
2022/10/11 04:58:32;;;;;;;;;;;22.00;89.60;;;;;;5116238;28;19914;-46
2022/10/11 05:00:58;;;;;;;;;;;21.90;89.60;;;;;;5116354;28;19914;-48
2022/10/11 05:03:24;;;;;;;;;;;22.00;89.70;;;;;;5131256;27;19908;-46
2022/10/11 05:05:50;;;;;;;;;;;21.90;89.60;;;;;;5136728;27;19919;-47
2022/10/11 05:08:15;;;;;;;;;;;21.90;89.60;;;;;;5136841;27;19916;-45
2022/10/11 05:10:41;;;;;;;;;;;22.00;89.70;;;;;;5136620;27;19956;-47
2022/10/11 05:13:06;;;;;;;;;;;21.90;89.70;;;;;;5136740;27;20319;-47
2022/10/11 05:15:32;;;;;;;;;;;21.90;89.70;;;;;;5136708;27;19946;-45
2022/10/11 05:17:57;;;;;;;;;;;21.90;89.70;;;;;;5136022;27;19998;-45
2022/10/11 05:20:23;;;;;;;;;;;21.90;89.70;;;;;;5136449;27;19960;-48
2022/10/11 05:22:48;;;;;;;;;;;21.90;89.70;;;;;;5136445;27;19990;-47
2022/10/11 05:25:14;;;;;;;;;;;21.90;89.70;;;;;;5136166;27;19908;-48
2022/10/11 05:27:39;;;;;;;;;;;21.90;89.80;;;;;;5136138;27;20262;-48
2022/10/11 05:30:05;;;;;;;;;;;21.90;89.80;;;;;;5135822;27;20009;-47
2022/10/11 05:32:30;;;;;;;;;;;21.90;89.80;;;;;;5135874;27;19922;-46
2022/10/11 05:34:56;;;;;;;;;;;21.90;89.90;;;;;;5136433;27;20373;-47
2022/10/11 05:37:22;;;;;;;;;;;21.90;89.90;;;;;;5135741;27;19907;-51
2022/10/11 05:39:47;;;;;;;;;;;21.90;89.90;;;;;;5136045;27;19914;-49
2022/10/11 05:42:12;;;;;;;;;;;21.90;89.90;;;;;;5135596;27;19968;-47
2022/10/11 05:44:38;;;;;;;;;;;21.90;89.90;;;;;;5128266;27;19919;-50
2022/10/11 05:47:03;;;;;;;;;;;21.90;89.80;;;;;;5114447;27;19965;-46
2022/10/11 05:49:29;;;;;;;;;;;22.00;89.80;;;;;;5113216;28;19911;-47
2022/10/11 05:51:54;;;;;;;;;;;22.00;89.60;;;;;;5120112;27;20402;-45
2022/10/11 05:54:20;;;;;;;;;;;22.10;89.40;;;;;;5117264;27;19915;-47
2022/10/11 05:56:46;;;;;;;;;;;22.20;89.20;;;;;;5114606;28;19956;-51
2022/10/11 05:59:11;;;;;;;;;;;22.20;88.90;;;;;;5112486;27;19956;-47
2022/10/11 06:01:36;;;;;;;;;;;22.20;88.70;;;;;;5116813;27;19933;-49
2022/10/11 06:04:03;;;;;;;;;;;22.30;88.80;;;;;;5118847;27;19912;-45
2022/10/11 06:06:29;;;;;;;;;;;22.20;89.10;;;;;;5112820;27;19972;-47
2022/10/11 06:08:54;;;;;;;;;;;22.30;89.90;;;;;;5113835;28;20246;-50
2022/10/11 06:11:26;;;;;;;;;;;22.30;89.20;;;;;;5113731;28;19924;-48
2022/10/11 06:13:53;;;;;;;;;;;22.20;89.30;;;;;;5130452;27;19908;-49
2022/10/11 06:16:18;;;;;;;;;;;22.20;89.30;;;;;;5135238;27;19915;-45
2022/10/11 06:18:44;;;;;;;;;;;22.10;89.30;;;;;;5135228;27;19907;-49
2022/10/11 06:21:09;;;;;;;;;;;22.10;89.40;;;;;;5134916;27;19907;-48
2022/10/11 06:23:35;;;;;;;;;;;22.10;89.40;;;;;;5135446;27;19933;-49
2022/10/11 06:26:04;;;;;;;;;;;22.10;89.50;;;;;;5135020;27;19912;-49
2022/10/11 06:28:30;;;;;;;;;;;22.00;89.50;;;;;;5135103;27;19931;-44
2022/10/11 06:30:55;;;;;;;;;;;22.00;89.60;;;;;;5134507;27;20358;-46
2022/10/11 06:33:21;;;;;;;;;;;22.00;89.60;;;;;;5134701;27;20369;-48
2022/10/11 06:35:47;;;;;;;;;;;22.00;89.70;;;;;;5116515;27;19908;-48
2022/10/11 06:38:12;;;;;;;;;;;21.90;89.60;;;;;;5135040;27;19915;-48
2022/10/11 06:40:38;;;;;;;;;;;21.90;89.60;;;;;;5134893;27;19958;-47
2022/10/11 06:43:03;;;;;;;;;;;21.90;89.60;;;;;;5134980;27;19907;-49
2022/10/11 06:45:29;;;;;;;;;;;21.90;89.70;;;;;;5134765;27;19914;-49
2022/10/11 06:47:55;;;;;;;;;;;21.90;89.70;;;;;;5134520;27;19915;-47
2022/10/11 06:50:20;;;;;;;;;;;21.90;89.70;;;;;;5134327;27;19915;-47
2022/10/11 06:52:46;;;;;;;;;;;21.90;89.70;;;;;;5115821;28;19912;-48
2022/10/11 06:55:12;;;;;;;;;;;21.80;89.70;;;;;;5116184;28;19907;-47
2022/10/11 06:57:37;;;;;;;;;;;21.90;89.70;;;;;;5134433;28;19949;-45
2022/10/11 07:00:04;;;;;;;;;;;21.80;89.60;;;;;;5134640;27;19908;-46
2022/10/11 07:02:29;;;;;;;;;;;21.90;89.60;;;;;;5120298;27;19914;-45
2022/10/11 07:04:54;;;;;;;;;;;21.90;89.50;;;;;;5138872;27;19994;-50
2022/10/11 07:07:20;;;;;;;;;;;22.00;89.40;;;;;;5138482;27;19976;-46
2022/10/11 07:09:45;;;;;;;;;;;22.00;89.30;;;;;;5138997;27;19911;-49
2022/10/11 07:12:11;;;;;;;;;;;22.00;89.20;;;;;;5138702;27;19912;-47
2022/10/11 07:14:36;;;;;;;;;;;22.00;89.10;;;;;;5139169;27;19907;-46
2022/10/11 07:17:02;;;;;;;;;;;22.00;89.10;;;;;;5138875;27;19995;-49
2022/10/11 07:19:27;;;;;;;;;;;22.00;89.10;;;;;;5138643;27;19961;-46
2022/10/11 07:21:53;;;;;;;;;;;22.00;89.10;;;;;;5138764;27;20368;-48
2022/10/11 07:24:18;;;;;;;;;;;22.00;89.20;;;;;;5138297;27;19914;-49
2022/10/11 07:26:44;;;;;;;;;;;22.00;89.30;;;;;;5138454;27;20044;-45
2022/10/11 07:29:09;;;;;;;;;;;21.90;89.30;;;;;;5138283;27;20270;-51
2022/10/11 07:31:36;;;;;;;;;;;21.90;89.30;;;;;;5138455;27;19998;-45
2022/10/11 07:34:01;;;;;;;;;;;21.90;89.30;;;;;;5138548;27;19911;-46
2022/10/11 07:36:26;;;;;;;;;;;21.90;89.40;;;;;;5120184;27;19915;-47
2022/10/11 07:38:52;;;;;;;;;;;21.90;89.40;;;;;;5138153;27;20353;-48
2022/10/11 07:41:18;;;;;;;;;;;21.80;89.30;;;;;;5138220;27;19965;-46
2022/10/11 07:43:45;;;;;;;;;;;21.90;89.40;;;;;;5138309;27;19907;-46
2022/10/11 07:46:11;;;;;;;;;;;21.90;89.60;;;;;;5138292;27;19993;-45
2022/10/11 07:48:36;;;;;;;;;;;21.80;89.40;;;;;;5137928;27;19908;-46
2022/10/11 07:51:03;;;;;;;;;;;21.80;89.40;;;;;;5138125;27;19918;-45
2022/10/11 07:53:28;;;;;;;;;;;21.80;89.50;;;;;;5138070;27;19911;-45
2022/10/11 07:55:54;;;;;;;;;;;21.80;89.50;;;;;;5138095;27;20263;-47
2022/10/11 07:58:19;;;;;;;;;;;21.80;89.40;;;;;;5137678;27;19911;-48
2022/10/11 08:00:51;;;;;;;;;;;21.80;89.50;;;;;;5137721;27;19914;-47
2022/10/11 08:03:16;;;;;;;;;;;21.80;89.50;;;;;;5123787;27;19911;-48
2022/10/11 08:05:42;;;;;;;;;;;21.80;89.50;;;;;;5117520;28;19971;-48
2022/10/11 08:08:07;;;;;;;;;;;21.80;89.40;;;;;;5132163;27;19911;-46
2022/10/11 08:10:37;;;;;;;;;;;21.90;89.80;;;;;;5129665;27;19915;-48
2022/10/11 08:13:02;;;;;;;;;;;21.90;89.10;;;;;;5118373;27;19920;-47
2022/10/11 08:15:28;;;;;;;;;;;22.00;88.90;;;;;;5115144;27;19936;-50
2022/10/11 08:17:53;;;;;;;;;;;22.10;88.80;;;;;;5114972;28;19912;-47
2022/10/11 08:20:19;;;;;;;;;;;22.10;88.50;;;;;;5115511;28;20036;-46
2022/10/11 08:22:44;;;;;;;;;;;22.10;88.40;;;;;;5115663;28;20274;-47
2022/10/11 08:25:10;;;;;;;;;;;22.10;88.30;;;;;;5115621;28;20010;-49
2022/10/11 08:27:36;;;;;;;;;;;22.10;88.40;;;;;;5115671;28;19908;-46
2022/10/11 08:30:02;;;;;;;;;;;22.10;88.40;;;;;;5115282;28;19911;-44
2022/10/11 08:32:28;;;;;;;;;;;22.10;88.30;;;;;;5115722;27;19911;-48
2022/10/11 08:34:53;;;;;;;;;;;22.10;88.50;;;;;;5116272;27;19907;-49
2022/10/11 08:37:19;;;;;;;;;;;22.10;88.70;;;;;;5116450;28;19904;-44
2022/10/11 08:39:44;;;;;;;;;;;22.00;88.70;;;;;;5115695;28;20001;-45
2022/10/11 08:42:14;;;;;;;;;;;22.00;88.80;;;;;;5116760;28;19908;-45
2022/10/11 08:44:48;;;;;;;;;;;22.10;89.00;;;;;;5115338;27;19916;-45
2022/10/11 08:47:26;;;;;;;;;;;22.00;88.90;;;;;;5115744;27;19907;-49
2022/10/11 08:49:52;;;;;;;;;;;22.00;89.00;;;;;;5115042;27;19911;-46
2022/10/11 08:52:20;;;;;;;;;;;22.00;89.10;;;;;;5116356;27;20303;-45
2022/10/11 08:54:48;;;;;;;;;;;22.00;89.20;;;;;;5097543;27;19907;-52
2022/10/11 08:57:16;;;;;;;;;;;22.00;89.30;;;;;;5110439;27;19908;-46
2022/10/11 08:59:45;;;;;;;;;;;22.00;89.40;;;;;;5116007;27;19908;-51
2022/10/11 09:02:23;;;;;;;;;;;22.00;89.40;;;;;;5120992;27;20303;-45
2022/10/11 09:04:50;;;;;;;;;;;22.00;89.50;;;;;;5124032;27;20252;-49
2022/10/11 09:07:24;;;;;;;;;;;22.00;89.50;;;;;;5115489;28;19923;-48
2022/10/11 09:09:54;;;;;;;;;;;22.00;89.60;;;;;;5115072;27;20254;-47
2022/10/11 09:12:38;;;;;;;;;;;22.00;89.60;;;;;;5115219;28;19988;-50
2022/10/11 09:15:10;;;;;;;;;;;22.00;89.60;;;;;;5095510;28;19908;-46
2022/10/11 09:17:41;;;;;;;;;;;22.00;89.60;;;;;;5113624;27;19998;-48
2022/10/11 09:20:22;;;;;;;;;;;22.00;89.70;;;;;;5115174;27;19947;-49
2022/10/11 09:23:07;;;;;;;;;;;22.00;89.70;;;;;;5115040;28;20363;-49
2022/10/11 09:25:34;;;;;;;;;;;22.00;89.70;;;;;;5114399;28;20243;-46
2022/10/11 09:28:04;;;;;;;;;;;22.00;89.70;;;;;;5115488;28;19904;-52
2022/10/11 09:30:29;;;;;;;;;;;22.00;89.70;;;;;;5115301;27;20358;-48
2022/10/11 09:33:03;;;;;;;;;;;22.00;89.70;;;;;;5114161;27;19951;-48
2022/10/11 09:35:32;;;;;;;;;;;22.00;89.70;;;;;;5114745;27;19908;-50
2022/10/11 09:38:13;;;;;;;;;;;22.00;89.70;;;;;;5115676;28;19904;-48
2022/10/11 09:40:50;;;;;;;;;;;22.00;89.70;;;;;;5114045;27;19908;-50
2022/10/11 09:43:16;;;;;;;;;;;22.00;89.80;;;;;;5097378;28;19965;-50
2022/10/11 09:45:44;;;;;;;;;;;22.00;89.80;;;;;;5114492;28;20366;-50
2022/10/11 09:48:13;;;;;;;;;;;22.00;89.80;;;;;;5114697;27;19911;-49
2022/10/11 09:50:38;;;;;;;;;;;22.00;89.80;;;;;;5113150;27;19924;-51
2022/10/11 09:53:04;;;;;;;;;;;22.00;89.80;;;;;;5114037;28;19919;-46
2022/10/11 09:55:38;;;;;;;;;;;22.00;89.80;;;;;;5114633;27;20347;-51
2022/10/11 09:58:04;;;;;;;;;;;22.10;89.80;;;;;;5096578;28;19912;-47
2022/10/11 10:00:32;;;;;;;;;;;22.10;89.80;;;;;;5114767;27;20258;-50
2022/10/11 10:03:02;;;;;;;;;;;22.10;89.70;;;;;;5126303;27;19914;-47
2022/10/11 10:05:27;;;;;;;;;;;22.00;89.70;;;;;;5131326;27;19911;-48
2022/10/11 10:08:00;;;;;;;;;;;22.00;89.60;;;;;;5112197;28;20412;-48
2022/10/11 10:10:28;;;;;;;;;;;22.00;89.70;;;;;;5113443;28;19911;-46
2022/10/11 10:12:56;;;;;;;;;;;22.00;89.60;;;;;;5113398;28;19919;-48
2022/10/11 10:15:25;;;;;;;;;;;22.00;89.60;;;;;;5113848;27;20146;-47
2022/10/11 10:17:51;;;;;;;;;;;22.00;89.60;;;;;;5097019;28;19912;-49
2022/10/11 10:20:21;;;;;;;;;;;22.00;89.60;;;;;;5113422;28;19915;-47
2022/10/11 10:22:47;;;;;;;;;;;22.00;89.60;;;;;;5109848;28;19983;-48
2022/10/11 10:25:20;;;;;;;;;;;22.00;89.50;;;;;;5112860;28;19908;-47
2022/10/11 10:27:55;;;;;;;;;;;22.00;89.50;;;;;;5112196;27;20521;-46
2022/10/11 10:30:20;;;;;;;;;;;22.00;89.50;;;;;;5113270;27;19922;-49
2022/10/11 10:33:03;;;;;;;;;;;22.00;89.50;;;;;;5113456;28;19911;-51
2022/10/11 10:35:28;;;;;;;;;;;22.00;89.50;;;;;;5114336;28;20313;-47
2022/10/11 10:37:54;;;;;;;;;;;22.00;89.50;;;;;;5111923;27;19914;-47
2022/10/11 10:40:26;;;;;;;;;;;22.00;89.40;;;;;;5114628;27;20629;-48
2022/10/11 10:42:51;;;;;;;;;;;22.00;89.50;;;;;;5093837;28;19904;-47
2022/10/11 10:45:17;;;;;;;;;;;22.00;89.50;;;;;;5095232;28;20023;-45
2022/10/11 10:48:09;;;;;;;;;;;22.00;89.50;;;;;;5114321;28;19916;-45
2022/10/11 10:50:47;;;;;;;;;;;22.00;90.00;;;;;;5081563;28;20019;-46
2022/10/11 10:53:16;;;;;;;;;;;21.90;89.60;;;;;;5112716;28;19960;-44
2022/10/11 10:55:44;;;;;;;;;;;22.00;89.70;;;;;;5112714;28;20518;-46
2022/10/11 10:58:10;;;;;;;;;;;21.90;89.70;;;;;;5115477;28;19914;-49
2022/10/11 11:00:38;;;;;;;;;;;22.00;89.70;;;;;;5114066;28;19978;-45
2022/10/11 11:03:17;;;;;;;;;;;22.00;89.80;;;;;;5125423;28;19910;-49
2022/10/11 11:05:47;;;;;;;;;;;22.00;89.80;;;;;;5115066;28;19954;-45
2022/10/11 11:08:23;;;;;;;;;;;22.00;89.80;;;;;;5113443;28;20361;-45
2022/10/11 11:10:51;;;;;;;;;;;22.00;89.80;;;;;;5114091;28;20008;-46
2022/10/11 11:13:35;;;;;;;;;;;22.10;89.80;;;;;;5115851;28;20354;-45
2022/10/11 11:16:16;;;;;;;;;;;22.10;89.70;;;;;;5112265;28;20338;-44
2022/10/11 11:19:04;;;;;;;;;;;22.10;89.60;;;;;;5105588;28;19908;-45
2022/10/11 11:21:48;;;;;;;;;;;22.20;89.70;;;;;;5112055;28;19912;-45
2022/10/11 11:24:13;;;;;;;;;;;22.20;89.50;;;;;;5109312;28;19912;-45
2022/10/11 11:27:00;;;;;;;;;;;22.20;89.50;;;;;;5094243;28;19908;-49
2022/10/11 11:29:44;;;;;;;;;;;22.30;89.40;;;;;;5111755;28;19965;-45
2022/10/11 11:32:21;;;;;;;;;;;22.30;89.30;;;;;;5112437;28;19912;-46
2022/10/11 11:34:57;;;;;;;;;;;22.30;89.30;;;;;;5113386;28;19908;-49
2022/10/11 11:37:22;;;;;;;;;;;22.30;89.30;;;;;;5113540;28;19926;-47
2022/10/11 11:39:50;;;;;;;;;;;22.30;89.40;;;;;;5113753;28;19908;-46
2022/10/11 11:42:18;;;;;;;;;;;22.30;89.40;;;;;;5113769;28;19908;-50
2022/10/11 11:44:48;;;;;;;;;;;22.20;89.40;;;;;;5113721;28;19907;-47
2022/10/11 11:47:16;;;;;;;;;;;22.20;89.50;;;;;;5114963;28;20332;-47
2022/10/11 11:49:45;;;;;;;;;;;22.20;89.50;;;;;;5117809;28;20338;-47
2022/10/11 11:52:13;;;;;;;;;;;22.20;89.50;;;;;;5117742;28;19921;-49
2022/10/11 11:54:39;;;;;;;;;;;22.20;89.50;;;;;;5117146;28;20002;-46
2022/10/11 11:57:07;;;;;;;;;;;22.20;89.60;;;;;;5117834;28;20068;-48
2022/10/11 11:59:49;;;;;;;;;;;22.10;89.60;;;;;;5117215;28;19908;-48
2022/10/11 12:02:30;;;;;;;;;;;22.10;89.70;;;;;;5122840;27;19946;-50
2022/10/11 12:04:56;;;;;;;;;;;22.10;89.70;;;;;;5137434;27;19970;-49
2022/10/11 12:07:23;;;;;;;;;;;22.10;89.80;;;;;;5118538;27;19923;-48
2022/10/11 12:09:51;;;;;;;;;;;22.10;89.80;;;;;;5137428;27;19912;-47
2022/10/11 12:12:26;;;;;;;;;;;22.10;89.80;;;;;;5137462;27;19918;-50
2022/10/11 12:15:00;;;;;;;;;;;22.10;89.80;;;;;;5137686;27;19918;-50
2022/10/11 12:17:26;;;;;;;;;;;22.00;89.80;;;;;;5137610;27;19952;-45
2022/10/11 12:19:58;;;;;;;;;;;22.10;89.90;;;;;;5137074;27;19907;-49
2022/10/11 12:22:27;;;;;;;;;;;22.10;89.90;;;;;;5137561;27;19907;-49
2022/10/11 12:24:56;;;;;;;;;;;22.10;89.90;;;;;;5137091;27;20226;-48
2022/10/11 12:27:40;;;;;;;;;;;22.10;89.80;;;;;;5137440;27;19918;-48
2022/10/11 12:30:25;;;;;;;;;;;22.10;89.80;;;;;;5137315;27;19911;-46
2022/10/11 12:32:51;;;;;;;;;;;22.10;89.70;;;;;;5119187;27;19912;-46
2022/10/11 12:35:29;;;;;;;;;;;22.10;89.80;;;;;;5137236;27;20018;-49
2022/10/11 12:38:02;;;;;;;;;;;22.10;89.70;;;;;;5137361;27;19908;-47
2022/10/11 12:40:32;;;;;;;;;;;22.10;89.70;;;;;;5137122;27;19907;-49
2022/10/11 12:43:16;;;;;;;;;;;22.10;89.80;;;;;;5137269;27;19911;-47
2022/10/11 12:45:46;;;;;;;;;;;22.10;89.80;;;;;;5136989;27;19955;-49
2022/10/11 12:48:20;;;;;;;;;;;22.10;89.90;;;;;;5136716;27;20402;-49
2022/10/11 12:50:45;;;;;;;;;;;22.10;89.90;;;;;;5137236;27;19922;-45
2022/10/11 12:53:17;;;;;;;;;;;22.10;89.90;;;;;;5137033;27;19911;-45
2022/10/11 12:55:56;;;;;;;;;;;22.10;90.00;;;;;;5136840;27;19953;-49
2022/10/11 12:58:23;;;;;;;;;;;22.10;89.90;;;;;;5135569;27;19912;-45
2022/10/11 13:00:53;;;;;;;;;;;22.10;89.90;;;;;;5128246;27;20002;-46
2022/10/11 13:03:27;;;;;;;;;;;22.10;89.90;;;;;;5115808;27;20015;-47
2022/10/11 13:05:55;;;;;;;;;;;22.10;89.90;;;;;;5110102;28;19916;-49
2022/10/11 13:08:24;;;;;;;;;;;22.10;89.90;;;;;;5114227;28;19915;-46
2022/10/11 13:10:51;;;;;;;;;;;22.10;89.90;;;;;;5114989;27;20388;-45
2022/10/11 13:13:21;;;;;;;;;;;22.10;90.00;;;;;;5114821;27;20377;-46
2022/10/11 13:15:47;;;;;;;;;;;22.10;90.00;;;;;;5114426;28;19915;-48
2022/10/11 13:18:14;;;;;;;;;;;22.20;90.10;;;;;;5098964;27;19976;-48
2022/10/11 13:20:40;;;;;;;;;;;22.10;90.10;;;;;;5113988;28;19923;-49
2022/10/11 13:23:17;;;;;;;;;;;22.10;90.00;;;;;;5114180;28;20292;-47
2022/10/11 13:25:42;;;;;;;;;;;22.10;90.00;;;;;;5114142;28;19911;-52
2022/10/11 13:28:08;;;;;;;;;;;22.10;90.10;;;;;;5114436;28;20350;-45
2022/10/11 13:30:34;;;;;;;;;;;22.10;90.00;;;;;;5095744;28;19966;-46
2022/10/11 13:33:01;;;;;;;;;;;22.10;90.10;;;;;;5114249;28;19912;-47
2022/10/11 13:35:29;;;;;;;;;;;22.10;90.00;;;;;;5112917;28;19995;-46
2022/10/11 13:37:55;;;;;;;;;;;22.20;90.00;;;;;;5109916;28;19912;-50
2022/10/11 13:40:20;;;;;;;;;;;22.20;90.00;;;;;;5113965;28;19911;-51
2022/10/11 13:42:47;;;;;;;;;;;22.20;90.00;;;;;;5114009;28;19930;-47
2022/10/11 13:45:15;;;;;;;;;;;22.20;90.00;;;;;;5113996;28;20481;-51
2022/10/11 13:47:41;;;;;;;;;;;22.20;90.00;;;;;;5113534;28;19916;-46
2022/10/11 13:50:09;;;;;;;;;;;22.20;89.90;;;;;;5113576;28;19912;-47
2022/10/11 13:52:35;;;;;;;;;;;22.20;89.90;;;;;;5113701;28;19919;-50
2022/10/11 13:55:04;;;;;;;;;;;22.20;89.90;;;;;;5113766;28;19912;-51
2022/10/11 13:57:35;;;;;;;;;;;22.20;89.90;;;;;;5113471;28;19923;-52
2022/10/11 14:00:06;;;;;;;;;;;22.20;89.90;;;;;;5113214;27;19912;-49
2022/10/11 14:02:32;;;;;;;;;;;22.20;89.90;;;;;;5122512;27;19920;-51
2022/10/11 14:04:57;;;;;;;;;;;22.20;89.90;;;;;;5117426;27;20374;-48
2022/10/11 14:07:28;;;;;;;;;;;22.20;89.90;;;;;;5109832;28;19930;-47
2022/10/11 14:09:54;;;;;;;;;;;22.20;89.80;;;;;;5111343;28;19911;-47
2022/10/11 14:12:32;;;;;;;;;;;22.20;89.80;;;;;;5111734;28;20373;-46
2022/10/11 14:14:59;;;;;;;;;;;22.20;89.70;;;;;;5113809;28;20377;-50
2022/10/11 14:17:34;;;;;;;;;;;22.20;89.70;;;;;;5114182;27;19932;-50
2022/10/11 14:20:19;;;;;;;;;;;22.10;89.70;;;;;;5113324;27;19914;-47
2022/10/11 14:22:44;;;;;;;;;;;22.10;89.70;;;;;;5114805;28;20247;-51